createdAt,value
2023-01-25T00:01:15.584Z,6.63
2023-01-25T00:03:42.084Z,6.70
2023-01-25T00:06:10.139Z,6.20
2023-01-25T00:08:38.524Z,7.10
2023-01-25T00:11:05.167Z,5.70
2023-01-25T00:13:31.703Z,5.07
2023-01-25T00:16:04.668Z,5.27
2023-01-25T00:18:31.474Z,5.43
2023-01-25T00:20:58.269Z,6.63
2023-01-25T00:23:24.851Z,6.03
2023-01-25T00:25:58.730Z,6.00
2023-01-25T00:28:25.510Z,5.53
2023-01-25T00:30:52.074Z,5.13
2023-01-25T00:33:18.631Z,4.40
2023-01-25T00:35:45.217Z,4.80
2023-01-25T00:38:38.181Z,5.37
2023-01-25T00:41:04.760Z,5.90
2023-01-25T00:43:31.299Z,7.00
2023-01-25T00:46:01.383Z,7.53
2023-01-25T00:48:27.983Z,6.47
2023-01-25T00:50:54.584Z,6.73
2023-01-25T00:53:21.157Z,8.03
2023-01-25T00:55:53.839Z,8.20
2023-01-25T00:58:20.428Z,8.10
2023-01-25T01:00:47.389Z,7.23
2023-01-25T01:03:13.993Z,8.63
2023-01-25T01:05:40.586Z,7.47
2023-01-25T01:08:07.198Z,7.63
2023-01-25T01:10:33.720Z,7.93
2023-01-25T01:13:00.251Z,7.07
2023-01-25T01:15:26.885Z,5.80
2023-01-25T01:17:55.877Z,5.80
2023-01-25T01:20:22.568Z,6.27
2023-01-25T01:22:51.917Z,4.07
2023-01-25T01:25:18.427Z,4.37
2023-01-25T01:27:44.935Z,3.70
2023-01-25T01:30:11.568Z,3.60
2023-01-25T01:32:38.257Z,4.53
2023-01-25T01:35:05.467Z,4.67
2023-01-25T01:37:32.206Z,3.43
2023-01-25T01:39:58.748Z,4.70
2023-01-25T01:42:25.295Z,5.27
2023-01-25T01:44:52.582Z,6.53
2023-01-25T01:47:22.184Z,6.93
2023-01-25T01:49:53.624Z,7.33
2023-01-25T01:52:20.856Z,5.73
2023-01-25T01:54:49.069Z,5.67
2023-01-25T01:57:20.021Z,5.73
2023-01-25T01:59:54.531Z,5.30
2023-01-25T02:02:21.059Z,5.40
2023-01-25T02:04:47.662Z,5.27
2023-01-25T02:07:17.172Z,6.40
2023-01-25T02:09:43.680Z,4.67
2023-01-25T02:12:10.227Z,6.37
2023-01-25T02:14:36.788Z,6.07
2023-01-25T02:17:03.943Z,6.33
2023-01-25T02:19:42.743Z,7.13
2023-01-25T02:22:10.368Z,6.70
2023-01-25T02:24:36.912Z,6.07
2023-01-25T02:27:03.468Z,5.93
2023-01-25T02:29:29.967Z,6.33
2023-01-25T02:32:00.302Z,5.57
2023-01-25T02:34:26.841Z,5.73
2023-01-25T02:36:53.351Z,5.83
2023-01-25T02:39:20.662Z,5.60
2023-01-25T02:41:48.282Z,5.13
2023-01-25T02:44:18.662Z,6.37
2023-01-25T02:46:45.261Z,5.20
2023-01-25T02:49:11.899Z,5.57
2023-01-25T02:51:39.353Z,5.70
2023-01-25T02:54:07.469Z,4.60
2023-01-25T02:56:36.071Z,4.70
2023-01-25T02:59:05.903Z,4.43
2023-01-25T03:01:38.916Z,4.77
2023-01-25T03:04:05.752Z,4.27
2023-01-25T03:06:32.657Z,4.10
2023-01-25T03:08:59.385Z,4.37
2023-01-25T03:11:25.920Z,5.00
2023-01-25T03:13:52.570Z,4.30
2023-01-25T03:16:19.213Z,4.70
2023-01-25T03:18:45.835Z,4.87
2023-01-25T03:21:13.295Z,5.50
2023-01-25T03:23:39.847Z,4.97
2023-01-25T03:26:10.560Z,6.13
2023-01-25T03:28:37.484Z,5.70
2023-01-25T03:31:04.206Z,5.70
2023-01-25T03:33:30.789Z,5.83
2023-01-25T03:35:57.445Z,6.10
2023-01-25T03:38:24.018Z,5.73
2023-01-25T03:40:50.572Z,5.97
2023-01-25T03:43:17.070Z,6.27
2023-01-25T03:45:43.630Z,6.40
2023-01-25T03:48:10.348Z,6.23
2023-01-25T03:50:36.895Z,6.97
2023-01-25T03:53:07.734Z,7.03
2023-01-25T03:55:34.553Z,6.40
2023-01-25T03:58:01.182Z,6.07
2023-01-25T04:00:27.722Z,5.17
2023-01-25T04:02:54.255Z,4.63
2023-01-25T04:05:20.799Z,4.77
2023-01-25T04:07:47.365Z,5.23
2023-01-25T04:10:13.965Z,6.17
2023-01-25T04:12:40.502Z,4.10
2023-01-25T04:15:07.670Z,4.77
2023-01-25T04:17:34.335Z,4.03
2023-01-25T04:20:01.031Z,4.93
2023-01-25T04:22:27.594Z,5.37
2023-01-25T04:24:54.211Z,5.23
2023-01-25T04:27:20.701Z,4.60
2023-01-25T04:29:47.288Z,5.53
2023-01-25T04:32:13.971Z,5.20
2023-01-25T04:34:40.553Z,4.33
2023-01-25T04:37:07.130Z,4.30
2023-01-25T04:39:33.639Z,4.83
2023-01-25T04:42:00.188Z,4.20
2023-01-25T04:44:26.723Z,4.30
2023-01-25T04:46:53.330Z,5.20
2023-01-25T04:49:19.930Z,4.13
2023-01-25T04:51:46.449Z,5.03
2023-01-25T04:54:12.996Z,5.47
2023-01-25T04:56:40.131Z,4.80
2023-01-25T04:59:06.610Z,4.80
2023-01-25T05:01:36.525Z,5.60
2023-01-25T05:04:03.123Z,5.27
2023-01-25T05:06:29.663Z,5.53
2023-01-25T05:08:56.140Z,5.27
2023-01-25T05:11:22.675Z,4.57
2023-01-25T05:13:49.365Z,5.53
2023-01-25T05:16:15.966Z,4.77
2023-01-25T05:18:48.964Z,5.03
2023-01-25T05:21:34.708Z,5.23
2023-01-25T05:24:01.384Z,6.93
2023-01-25T05:26:46.763Z,6.17
2023-01-25T05:29:13.325Z,6.47
2023-01-25T05:31:39.850Z,7.33
2023-01-25T05:34:06.418Z,6.07
2023-01-25T05:36:32.917Z,7.17
2023-01-25T05:38:59.453Z,8.20
2023-01-25T05:41:25.964Z,9.10
2023-01-25T05:43:52.619Z,7.73
2023-01-25T05:46:19.208Z,6.07
2023-01-25T05:48:47.866Z,6.37
2023-01-25T05:51:14.494Z,6.60
2023-01-25T05:53:41.020Z,5.97
2023-01-25T05:56:08.271Z,5.73
2023-01-25T05:58:34.787Z,5.83
2023-01-25T06:01:02.563Z,6.77
2023-01-25T06:03:29.545Z,6.20
2023-01-25T06:05:56.613Z,6.10
2023-01-25T06:08:23.261Z,6.27
2023-01-25T06:10:49.820Z,5.37
2023-01-25T06:13:16.553Z,5.40
2023-01-25T06:15:43.252Z,6.00
2023-01-25T06:18:09.901Z,6.13
2023-01-25T06:20:36.439Z,5.83
2023-01-25T06:23:02.975Z,6.43
2023-01-25T06:25:29.542Z,6.70
2023-01-25T06:27:56.130Z,5.97
2023-01-25T06:30:22.894Z,6.53
2023-01-25T06:32:50.685Z,5.40
2023-01-25T06:35:17.295Z,5.30
2023-01-25T06:37:43.847Z,6.10
2023-01-25T06:40:10.776Z,5.80
2023-01-25T06:42:37.351Z,6.57
2023-01-25T06:45:04.057Z,6.43
2023-01-25T06:47:30.678Z,6.37
2023-01-25T06:49:57.238Z,5.77
2023-01-25T06:52:23.901Z,6.70
2023-01-25T06:54:50.653Z,7.07
2023-01-25T06:57:17.234Z,7.53
2023-01-25T06:59:43.867Z,6.43
2023-01-25T07:02:16.382Z,6.93
2023-01-25T07:04:42.947Z,6.10
2023-01-25T07:07:09.617Z,7.03
2023-01-25T07:09:36.391Z,6.90
2023-01-25T07:12:04.866Z,7.63
2023-01-25T07:14:31.668Z,7.67
2023-01-25T07:17:02.863Z,7.40
2023-01-25T07:19:30.252Z,7.17
2023-01-25T07:21:56.993Z,6.73
2023-01-25T07:24:27.384Z,6.73
2023-01-25T07:26:54.036Z,7.57
2023-01-25T07:29:20.781Z,6.73
2023-01-25T07:31:47.786Z,8.13
2023-01-25T07:34:14.623Z,7.30
2023-01-25T07:36:41.319Z,7.90
2023-01-25T07:39:11.030Z,7.63
2023-01-25T07:41:38.036Z,8.13
2023-01-25T07:44:04.765Z,8.00
2023-01-25T07:46:31.443Z,8.63
2023-01-25T07:49:01.257Z,7.83
2023-01-25T07:51:30.242Z,6.97
2023-01-25T07:53:57.842Z,8.30
2023-01-25T07:56:26.461Z,8.40
2023-01-25T07:58:54.644Z,8.80
2023-01-25T08:01:21.820Z,8.47
2023-01-25T08:03:52.052Z,9.23
2023-01-25T08:06:20.527Z,9.23
2023-01-25T08:08:48.026Z,9.13
2023-01-25T08:11:14.920Z,10.20
2023-01-25T08:13:43.704Z,9.57
2023-01-25T08:16:10.763Z,9.40
2023-01-25T08:18:37.498Z,10.17
2023-01-25T08:21:04.654Z,9.13
2023-01-25T08:23:31.394Z,9.47
2023-01-25T08:26:04.918Z,9.77
2023-01-25T08:28:31.578Z,9.87
2023-01-25T08:31:11.523Z,10.23
2023-01-25T08:33:38.204Z,10.30
2023-01-25T08:36:05.204Z,10.07
2023-01-25T08:38:32.518Z,12.13
2023-01-25T08:41:12.835Z,11.77
2023-01-25T08:43:39.456Z,12.77
2023-01-25T08:46:06.196Z,12.57
2023-01-25T08:48:32.827Z,11.43
2023-01-25T08:50:59.516Z,12.03
2023-01-25T08:53:29.513Z,11.97
2023-01-25T08:55:56.093Z,11.43
2023-01-25T08:58:22.702Z,10.27
2023-01-25T09:00:49.508Z,10.33
2023-01-25T09:03:18.380Z,11.30
2023-01-25T09:05:44.973Z,11.23
2023-01-25T09:08:12.147Z,12.07
2023-01-25T09:10:38.894Z,10.23
2023-01-25T09:13:07.663Z,10.90
2023-01-25T09:15:35.337Z,9.47
2023-01-25T09:18:01.997Z,8.40
2023-01-25T09:20:29.466Z,9.63
2023-01-25T09:22:59.581Z,10.23
2023-01-25T09:25:26.333Z,10.30
2023-01-25T09:27:53.186Z,10.17
2023-01-25T09:30:19.912Z,10.37
2023-01-25T09:32:48.820Z,10.63
2023-01-25T09:35:15.703Z,10.13
2023-01-25T09:37:42.338Z,11.73
2023-01-25T09:40:19.303Z,10.50
2023-01-25T09:42:45.795Z,9.73
2023-01-25T09:45:18.167Z,10.50
2023-01-25T09:47:49.538Z,9.77
2023-01-25T09:50:16.049Z,10.33
2023-01-25T09:52:54.788Z,10.40
2023-01-25T09:55:22.479Z,10.00
2023-01-25T09:57:50.693Z,9.93
2023-01-25T10:00:24.756Z,9.20
2023-01-25T10:02:58.746Z,9.80
2023-01-25T10:05:26.585Z,10.20
2023-01-25T10:08:15.033Z,9.33
2023-01-25T10:10:42.405Z,9.00
2023-01-25T10:13:12.534Z,10.57
2023-01-25T10:15:49.027Z,9.93
2023-01-25T10:18:37.255Z,9.57
2023-01-25T10:21:11.479Z,9.27
2023-01-25T10:23:44.908Z,8.87
2023-01-25T10:26:27.433Z,9.07
2023-01-25T10:29:00.068Z,9.53
2023-01-25T10:31:33.321Z,11.10
2023-01-25T10:33:59.940Z,12.07
2023-01-25T10:36:29.057Z,12.03
2023-01-25T10:38:59.612Z,10.73
2023-01-25T10:41:27.162Z,10.60
2023-01-25T10:44:13.656Z,8.97
2023-01-25T10:46:40.752Z,8.67
2023-01-25T10:49:18.125Z,9.00
2023-01-25T10:51:44.703Z,10.03
2023-01-25T10:54:14.472Z,8.73
2023-01-25T10:56:41.145Z,9.27
2023-01-25T10:59:16.746Z,9.07
2023-01-25T11:01:43.628Z,10.43
2023-01-25T11:04:25.586Z,11.17
2023-01-25T11:06:53.040Z,10.80
2023-01-25T11:09:20.926Z,9.97
2023-01-25T11:11:54.570Z,10.17
2023-01-25T11:14:21.546Z,9.10
2023-01-25T11:16:48.517Z,9.97
2023-01-25T11:19:44.420Z,9.37
2023-01-25T11:22:21.212Z,8.80
2023-01-25T11:24:47.828Z,8.97
2023-01-25T11:27:17.656Z,8.30
2023-01-25T11:29:47.153Z,8.37
2023-01-25T11:32:21.765Z,9.30
2023-01-25T11:34:52.431Z,8.77
2023-01-25T11:37:18.966Z,7.17
2023-01-25T11:40:04.166Z,8.67
2023-01-25T11:42:50.869Z,8.90
2023-01-25T11:45:32.909Z,7.50
2023-01-25T11:48:06.470Z,7.40
2023-01-25T11:50:40.224Z,7.13
2023-01-25T11:53:15.871Z,8.47
2023-01-25T11:55:45.847Z,6.83
2023-01-25T11:58:32.311Z,7.10
2023-01-25T12:01:22.476Z,8.13
2023-01-25T12:03:52.175Z,7.73
2023-01-25T12:06:18.849Z,8.00
2023-01-25T12:08:54.703Z,8.03
2023-01-25T12:11:32.810Z,8.10
2023-01-25T12:14:12.074Z,8.53
2023-01-25T12:16:57.258Z,8.77
2023-01-25T12:19:23.731Z,8.63
2023-01-25T12:21:59.268Z,7.75
2023-01-25T12:24:38.335Z,7.60
2023-01-25T12:27:07.920Z,8.77
2023-01-25T12:29:36.349Z,8.20
2023-01-25T12:32:11.625Z,8.50
2023-01-25T12:34:38.721Z,6.40
2023-01-25T12:37:22.367Z,6.80
2023-01-25T12:40:04.028Z,7.50
2023-01-25T12:42:38.308Z,7.20
2023-01-25T12:45:34.417Z,6.33
2023-01-25T12:48:04.974Z,6.70
2023-01-25T12:50:33.774Z,7.53
2023-01-25T12:53:00.266Z,7.57
2023-01-25T12:55:26.803Z,7.80
2023-01-25T12:58:02.480Z,9.13
2023-01-25T13:00:29.714Z,9.43
2023-01-25T13:03:02.776Z,9.73
2023-01-25T13:05:30.668Z,9.67
2023-01-25T13:08:26.704Z,9.40
2023-01-25T13:11:09.649Z,9.57
2023-01-25T13:13:36.153Z,11.33
2023-01-25T13:16:26.118Z,10.70
2023-01-25T13:18:52.847Z,11.23
2023-01-25T13:21:38.837Z,11.60
2023-01-25T13:24:41.112Z,9.77
2023-01-25T13:27:23.893Z,9.20
2023-01-25T13:30:00.583Z,9.90
2023-01-25T13:32:33.338Z,9.30
2023-01-25T13:34:59.991Z,9.63
2023-01-25T13:37:30.415Z,9.37
2023-01-25T13:40:07.804Z,9.70
2023-01-25T13:42:36.407Z,10.30
2023-01-25T13:45:23.430Z,9.87
2023-01-25T13:48:00.123Z,10.03
2023-01-25T13:50:27.320Z,9.27
2023-01-25T13:52:59.899Z,10.77
2023-01-25T13:55:26.899Z,9.90
2023-01-25T13:57:54.689Z,11.17
2023-01-25T14:00:21.552Z,10.50
2023-01-25T14:02:50.271Z,11.10
2023-01-25T14:05:20.557Z,10.53
2023-01-25T14:07:47.643Z,10.60
2023-01-25T14:10:15.616Z,10.10
2023-01-25T14:12:42.796Z,11.57
2023-01-25T14:15:18.155Z,11.73
2023-01-25T14:17:44.896Z,10.57
2023-01-25T14:20:18.421Z,11.27
2023-01-25T14:22:48.957Z,10.70
2023-01-25T14:25:17.296Z,10.27
2023-01-25T14:27:47.652Z,10.63
2023-01-25T14:30:23.498Z,10.10
2023-01-25T14:32:50.513Z,10.90
2023-01-25T14:35:54.134Z,11.13
2023-01-25T14:38:20.965Z,12.20
2023-01-25T14:40:47.535Z,11.87
2023-01-25T14:43:14.292Z,11.97
2023-01-25T14:45:41.036Z,12.63
2023-01-25T14:48:27.518Z,13.03
2023-01-25T14:50:54.027Z,12.63
2023-01-25T14:53:24.054Z,12.23
2023-01-25T14:55:50.589Z,11.13
2023-01-25T14:58:17.835Z,11.53
2023-01-25T15:00:52.180Z,11.67
2023-01-25T15:03:18.796Z,12.23
2023-01-25T15:05:45.681Z,11.93
2023-01-25T15:08:12.573Z,10.53
2023-01-25T15:10:50.174Z,11.33
2023-01-25T15:13:16.701Z,10.10
2023-01-25T15:15:52.501Z,11.17
2023-01-25T15:18:37.666Z,11.10
2023-01-25T15:21:04.193Z,11.77
2023-01-25T15:23:30.704Z,13.47
2023-01-25T15:26:00.533Z,14.97
2023-01-25T15:28:28.318Z,13.37
2023-01-25T15:30:55.307Z,12.33
2023-01-25T15:33:22.592Z,10.57
2023-01-25T15:35:49.459Z,9.90
2023-01-25T15:38:15.989Z,8.80
2023-01-25T15:40:42.929Z,8.80
2023-01-25T15:43:13.316Z,9.83
2023-01-25T15:45:40.610Z,10.67
2023-01-25T15:48:10.476Z,10.67
2023-01-25T15:50:37.049Z,11.80
2023-01-25T15:53:03.538Z,10.57
2023-01-25T15:55:30.077Z,9.63
2023-01-25T15:57:57.493Z,11.00
2023-01-25T16:00:24.139Z,11.03
2023-01-25T16:02:50.667Z,10.33
2023-01-25T16:05:18.627Z,10.77
2023-01-25T16:07:46.101Z,10.77
2023-01-25T16:10:22.617Z,12.13
2023-01-25T16:12:49.631Z,12.40
2023-01-25T16:15:16.610Z,14.00
2023-01-25T16:17:43.541Z,11.93
2023-01-25T16:20:14.694Z,11.20
2023-01-25T16:22:41.929Z,10.67
2023-01-25T16:25:09.691Z,10.00
2023-01-25T16:27:36.370Z,10.83
2023-01-25T16:30:04.699Z,10.13
2023-01-25T16:32:33.708Z,10.50
2023-01-25T16:35:00.470Z,10.73
2023-01-25T16:37:27.240Z,10.93
2023-01-25T16:39:54.545Z,12.10
2023-01-25T16:42:22.695Z,11.80
2023-01-25T16:44:49.819Z,12.90
2023-01-25T16:47:16.825Z,12.87
2023-01-25T16:49:43.451Z,13.37
2023-01-25T16:52:10.867Z,13.60
2023-01-25T16:54:43.182Z,12.20
2023-01-25T16:57:19.894Z,14.53
2023-01-25T16:59:47.092Z,13.60
2023-01-25T17:02:14.795Z,12.90
2023-01-25T17:04:41.464Z,13.20
2023-01-25T17:07:10.250Z,14.43
2023-01-25T17:09:37.091Z,15.00
2023-01-25T17:12:03.860Z,13.83
2023-01-25T17:14:30.430Z,14.20
2023-01-25T17:16:56.954Z,15.00
2023-01-25T17:19:23.717Z,14.37
2023-01-25T17:21:50.299Z,13.50
2023-01-25T17:24:17.642Z,12.77
2023-01-25T17:26:44.414Z,13.53
2023-01-25T17:29:11.010Z,13.77
2023-01-25T17:31:37.711Z,16.17
2023-01-25T17:34:04.915Z,17.60
2023-01-25T17:36:31.631Z,17.97
2023-01-25T17:39:07.995Z,18.73
2023-01-25T17:41:34.793Z,17.33
2023-01-25T17:44:01.364Z,17.10
2023-01-25T17:46:30.092Z,15.73
2023-01-25T17:48:57.498Z,14.67
2023-01-25T17:51:24.990Z,15.43
2023-01-25T17:53:52.097Z,14.10
2023-01-25T17:56:19.337Z,15.00
2023-01-25T17:58:45.906Z,15.40
2023-01-25T18:01:18.661Z,14.50
2023-01-25T18:03:45.680Z,14.63
2023-01-25T18:06:14.207Z,15.40
2023-01-25T18:08:41.587Z,14.03
2023-01-25T18:11:09.151Z,12.53
2023-01-25T18:13:38.854Z,12.73
2023-01-25T18:16:06.549Z,12.80
2023-01-25T18:18:33.259Z,11.83
2023-01-25T18:21:03.719Z,12.23
2023-01-25T18:23:31.773Z,12.27
2023-01-25T18:25:58.473Z,14.13
2023-01-25T18:28:25.748Z,14.97
2023-01-25T18:30:53.003Z,15.73
2023-01-25T18:33:19.904Z,13.93
2023-01-25T18:35:48.748Z,13.73
2023-01-25T18:38:16.106Z,12.83
2023-01-25T18:40:44.158Z,11.33
2023-01-25T18:43:12.356Z,11.70
2023-01-25T18:45:39.787Z,12.60
2023-01-25T18:48:06.588Z,10.60
2023-01-25T18:50:35.472Z,10.60
2023-01-25T18:53:02.035Z,10.30
2023-01-25T18:55:28.618Z,10.60
2023-01-25T18:57:57.395Z,10.03
2023-01-25T19:00:23.923Z,10.83
2023-01-25T19:02:50.508Z,10.10
2023-01-25T19:05:18.732Z,9.67
2023-01-25T19:07:45.299Z,10.20
2023-01-25T19:10:11.868Z,11.83
2023-01-25T19:12:38.452Z,11.43
2023-01-25T19:15:05.267Z,11.23
2023-01-25T19:17:32.176Z,11.80
2023-01-25T19:19:58.684Z,10.67
2023-01-25T19:22:26.025Z,11.03
2023-01-25T19:24:52.625Z,9.73
2023-01-25T19:27:22.774Z,10.33
2023-01-25T19:29:50.213Z,9.63
2023-01-25T19:32:16.835Z,10.37
2023-01-25T19:34:43.577Z,9.10
2023-01-25T19:37:10.227Z,8.10
2023-01-25T19:39:37.183Z,9.27
2023-01-25T19:42:03.969Z,10.03
2023-01-25T19:44:30.839Z,10.07
2023-01-25T19:46:57.335Z,8.73
2023-01-25T19:49:23.862Z,8.43
2023-01-25T19:51:53.420Z,7.90
2023-01-25T19:54:20.476Z,8.53
2023-01-25T19:56:47.600Z,9.50
2023-01-25T19:59:15.855Z,7.90
2023-01-25T20:01:46.633Z,8.33
2023-01-25T20:04:14.074Z,9.97
2023-01-25T20:06:41.045Z,9.33
2023-01-25T20:09:07.875Z,9.40
2023-01-25T20:11:35.280Z,9.03
2023-01-25T20:14:04.583Z,8.23
2023-01-25T20:16:32.444Z,8.80
2023-01-25T20:18:59.554Z,7.37
2023-01-25T20:21:26.392Z,8.47
2023-01-25T20:23:55.160Z,7.47
2023-01-25T20:26:23.257Z,7.23
2023-01-25T20:28:51.720Z,6.97
2023-01-25T20:31:21.387Z,6.60
2023-01-25T20:33:48.101Z,7.07
2023-01-25T20:36:14.775Z,5.60
2023-01-25T20:38:41.387Z,5.83
2023-01-25T20:41:08.584Z,5.57
2023-01-25T20:43:35.319Z,6.20
2023-01-25T20:46:02.123Z,5.40
2023-01-25T20:48:29.014Z,6.37
2023-01-25T20:51:05.200Z,6.50
2023-01-25T20:53:31.873Z,7.37
2023-01-25T20:55:58.472Z,6.07
2023-01-25T20:58:24.978Z,7.10
2023-01-25T21:00:51.614Z,6.93
2023-01-25T21:03:18.302Z,5.77
2023-01-25T21:05:50.908Z,6.57
2023-01-25T21:08:18.586Z,6.47
2023-01-25T21:10:49.210Z,7.80
2023-01-25T21:13:15.911Z,7.70
2023-01-25T21:15:42.443Z,7.60
2023-01-25T21:18:09.157Z,6.87
2023-01-25T21:20:36.391Z,8.03
2023-01-25T21:23:02.978Z,7.77
2023-01-25T21:25:29.508Z,8.77
2023-01-25T21:27:56.048Z,9.00
2023-01-25T21:30:23.287Z,9.33
2023-01-25T21:32:49.895Z,8.73
2023-01-25T21:35:16.434Z,9.10
2023-01-25T21:37:44.441Z,8.97
2023-01-25T21:40:11.359Z,8.77
2023-01-25T21:42:38.139Z,9.40
2023-01-25T21:45:23.534Z,9.73
2023-01-25T21:47:50.049Z,9.90
2023-01-25T21:50:36.333Z,10.33
2023-01-25T21:53:02.858Z,10.93
2023-01-25T21:55:29.429Z,11.77
2023-01-25T21:57:56.022Z,12.00
2023-01-25T22:00:22.559Z,11.17
2023-01-25T22:02:50.569Z,10.27
2023-01-25T22:05:17.138Z,11.37
2023-01-25T22:07:43.665Z,11.33
2023-01-25T22:10:10.772Z,11.70
2023-01-25T22:12:37.477Z,13.33
2023-01-25T22:15:04.127Z,12.70
2023-01-25T22:17:30.739Z,12.50
2023-01-25T22:19:57.218Z,12.10
2023-01-25T22:22:23.727Z,12.93
2023-01-25T22:24:50.275Z,11.33
2023-01-25T22:27:20.671Z,12.90
2023-01-25T22:29:47.212Z,12.67
2023-01-25T22:32:13.829Z,12.00
2023-01-25T22:34:40.462Z,12.77
2023-01-25T22:37:06.981Z,12.93
2023-01-25T22:39:33.487Z,13.83
2023-01-25T22:42:00.003Z,13.60
2023-01-25T22:44:26.573Z,13.17
2023-01-25T22:46:53.896Z,12.83
2023-01-25T22:49:20.462Z,14.87
2023-01-25T22:51:46.969Z,13.50
2023-01-25T22:54:13.511Z,13.30
2023-01-25T22:56:40.431Z,14.20
2023-01-25T22:59:08.176Z,13.17
2023-01-25T23:01:34.758Z,14.03
2023-01-25T23:04:01.356Z,14.17
2023-01-25T23:06:28.580Z,14.50
2023-01-25T23:08:59.965Z,14.37
2023-01-25T23:11:32.229Z,14.73
2023-01-25T23:14:18.018Z,14.63
2023-01-25T23:16:44.803Z,14.13
2023-01-25T23:19:11.325Z,14.10
2023-01-25T23:21:37.865Z,13.57
2023-01-25T23:24:04.522Z,13.37
2023-01-25T23:26:37.546Z,14.23
2023-01-25T23:29:05.611Z,13.90
2023-01-25T23:31:32.404Z,13.80
2023-01-25T23:33:59.686Z,14.60
2023-01-25T23:36:27.211Z,14.80
2023-01-25T23:38:54.062Z,14.13
2023-01-25T23:41:20.919Z,14.63
2023-01-25T23:43:47.526Z,15.13
2023-01-25T23:46:17.164Z,14.90
2023-01-25T23:48:43.931Z,14.97
2023-01-25T23:51:11.164Z,14.77
2023-01-25T23:53:38.029Z,15.63
2023-01-25T23:56:06.277Z,16.17
2023-01-25T23:58:33.375Z,15.03
